Midland, Arkansas
Current Conditions -  °F | °C
As of 12:35 PM on Thursday 30 Oct 2014 (Local Time) from KRKR Reporting Station
Overcast Overcast  
Wind Chill: 70°   Ceiling: 8000
Heat Index: 70°   Visibility: 10mi
Dew Point: 44°   Wind: 8mph
Humidity: 40%   Direction: 200°SSW
Pressure: 30.12"   Gusts: NA
Location:  35.09°N, 94.35°W
Report Text: KRKR 301735Z AUTO 20007KT 10SM OVC080 21/07 A3012 RMK AO2 T02090068
Loading
Personal Weather Stations






























Interactive Weather Map
Tropical Storm Tracking
New forecast layout! Learn more

10-Day Weather Forecast

Advertisements
Track Severe Weather on mobile